createdAt,value
2022-11-16T11:43:22.755Z,12.20
2022-11-16T11:45:58.715Z,12.20
2022-11-16T11:48:37.344Z,12.00
2022-11-16T11:51:22.849Z,12.20
2022-11-16T11:53:59.477Z,12.20
2022-11-16T11:56:28.763Z,12.30
2022-11-16T11:58:56.407Z,12.20
2022-11-16T12:01:25.974Z,12.10
2022-11-16T12:04:07.693Z,12.10
2022-11-16T12:06:46.574Z,11.90
2022-11-16T12:09:28.813Z,11.90
2022-11-16T12:12:11.888Z,12.00
2022-11-16T12:14:57.731Z,11.90
2022-11-16T12:17:48.811Z,11.80
2022-11-16T12:20:39.128Z,11.80
2022-11-16T12:23:43.124Z,11.90
2022-11-16T12:26:31.574Z,12.50
2022-11-16T12:29:05.590Z,12.60
2022-11-16T12:31:34.914Z,13.00
2022-11-16T12:34:25.715Z,13.00
2022-11-16T12:37:02.799Z,13.20
2022-11-16T12:39:35.424Z,13.20
2022-11-16T12:42:10.899Z,13.40
2022-11-16T12:45:08.569Z,13.80
2022-11-16T12:48:13.510Z,13.80
2022-11-16T12:51:15.051Z,13.80
2022-11-16T12:54:00.046Z,13.90
2022-11-16T12:56:53.342Z,13.90
2022-11-16T12:59:47.801Z,14.10
2022-11-16T13:02:38.586Z,14.20
2022-11-16T13:05:15.508Z,14.30
2022-11-16T13:07:50.475Z,14.60
2022-11-16T13:10:24.423Z,14.40
2022-11-16T13:13:21.906Z,14.40
2022-11-16T13:15:47.733Z,14.40
2022-11-16T13:18:21.958Z,14.50
2022-11-16T13:20:48.483Z,14.90
2022-11-16T13:23:26.810Z,15.10
2022-11-16T13:26:12.031Z,14.80
2022-11-16T13:28:44.435Z,14.90
2022-11-16T13:31:16.844Z,14.40
2022-11-16T13:33:51.355Z,14.20
2022-11-16T13:36:37.059Z,13.90
2022-11-16T13:39:05.754Z,13.80
2022-11-16T13:41:35.652Z,13.60
2022-11-16T13:44:04.390Z,13.50
2022-11-16T13:46:55.283Z,13.60
2022-11-16T13:49:28.947Z,13.50
2022-11-16T13:52:22.059Z,13.40
2022-11-16T13:54:56.364Z,13.40
2022-11-16T13:57:32.747Z,13.30
2022-11-16T14:00:02.570Z,13.30
2022-11-16T14:02:32.494Z,13.70
2022-11-16T14:05:04.796Z,13.50
2022-11-16T14:07:37.647Z,13.70
2022-11-16T14:10:05.842Z,14.10
2022-11-16T14:12:38.453Z,13.60
2022-11-16T14:15:15.644Z,13.40
2022-11-16T14:17:57.787Z,13.20
2022-11-16T14:20:38.297Z,13.20
2022-11-16T14:23:39.024Z,13.20
2022-11-16T14:26:13.643Z,13.30
2022-11-16T14:29:12.533Z,13.20
2022-11-16T14:32:01.179Z,13.40
2022-11-16T14:34:39.794Z,13.80
2022-11-16T14:37:11.569Z,14.10
2022-11-16T14:39:42.882Z,14.20
2022-11-16T14:43:01.533Z,14.20
2022-11-16T14:45:27.122Z,14.10
2022-11-16T14:48:05.397Z,13.80
2022-11-16T14:50:39.608Z,13.60
2022-11-16T14:53:13.333Z,13.40
2022-11-16T14:55:47.367Z,13.30
2022-11-16T14:58:13.917Z,13.10
2022-11-16T15:00:40.706Z,13.10
2022-11-16T15:03:10.982Z,13.00
2022-11-16T15:05:38.055Z,12.80
2022-11-16T15:08:15.939Z,12.80
2022-11-16T15:10:51.067Z,12.80
2022-11-16T15:13:20.881Z,12.70
2022-11-16T15:15:47.767Z,12.60
2022-11-16T15:18:19.827Z,12.60
2022-11-16T15:20:50.197Z,12.50
2022-11-16T15:23:17.508Z,12.40
2022-11-16T15:25:53.969Z,12.40
2022-11-16T15:28:26.257Z,12.30
2022-11-16T15:30:57.731Z,12.20
2022-11-16T15:33:28.086Z,12.20
2022-11-16T15:35:55.664Z,12.10
2022-11-16T15:38:33.381Z,12.10
2022-11-16T15:41:05.407Z,12.00
2022-11-16T15:43:45.028Z,11.90
2022-11-16T15:46:16.770Z,11.80
2022-11-16T15:48:44.079Z,11.80
2022-11-16T15:51:14.991Z,11.70
2022-11-16T15:53:49.918Z,11.60
2022-11-16T15:56:25.451Z,11.60
2022-11-16T15:58:54.110Z,11.50
2022-11-16T16:01:21.808Z,11.40
2022-11-16T16:04:06.332Z,11.30
2022-11-16T16:06:45.354Z,11.30
2022-11-16T16:09:31.919Z,11.30
2022-11-16T16:12:19.731Z,11.20
2022-11-16T16:14:48.579Z,11.20
2022-11-16T16:17:29.377Z,11.10
2022-11-16T16:20:04.357Z,11.10
2022-11-16T16:22:33.807Z,11.10
2022-11-16T16:25:01.555Z,11.10
2022-11-16T16:27:29.954Z,11.10
2022-11-16T16:29:58.231Z,11.10
2022-11-16T16:32:30.796Z,11.00
2022-11-16T16:34:59.564Z,11.00
2022-11-16T16:37:27.825Z,10.90
2022-11-16T16:39:54.461Z,10.80
2022-11-16T16:42:21.383Z,10.80
2022-11-16T16:44:48.615Z,10.80
2022-11-16T16:47:16.827Z,10.70
2022-11-16T16:49:43.781Z,10.70
2022-11-16T16:52:12.656Z,10.60
2022-11-16T16:54:40.205Z,10.70
2022-11-16T16:57:07.187Z,10.60
2022-11-16T16:59:33.883Z,10.60
2022-11-16T17:02:00.505Z,10.50
2022-11-16T17:04:27.161Z,10.50
2022-11-16T17:06:54.206Z,10.50
2022-11-16T17:09:21.006Z,10.40
2022-11-16T17:11:48.030Z,10.40
2022-11-16T17:14:14.770Z,10.40
2022-11-16T17:16:41.577Z,10.40
2022-11-16T17:19:08.213Z,10.30
2022-11-16T17:21:34.840Z,10.30
2022-11-16T17:24:01.433Z,10.30
2022-11-16T17:26:29.536Z,10.30
2022-11-16T17:28:57.460Z,10.20
2022-11-16T17:31:25.653Z,10.20
2022-11-16T17:33:53.028Z,10.20
2022-11-16T17:36:20.394Z,10.20
2022-11-16T17:38:47.036Z,10.10
2022-11-16T17:41:15.661Z,10.10
2022-11-16T17:43:43.684Z,10.10
2022-11-16T17:46:16.091Z,10.10
2022-11-16T17:48:44.608Z,10.00
2022-11-16T17:51:12.768Z,10.00
2022-11-16T17:53:40.680Z,10.00
2022-11-16T17:56:07.953Z,10.00
2022-11-16T17:58:34.746Z,10.10
2022-11-16T18:01:01.461Z,10.10
2022-11-16T18:03:31.046Z,10.10
2022-11-16T18:06:02.896Z,10.10
2022-11-16T18:08:30.246Z,10.10
2022-11-16T18:10:56.849Z,10.20
2022-11-16T18:13:23.650Z,10.20
2022-11-16T18:15:50.247Z,10.20
2022-11-16T18:18:16.882Z,10.20
2022-11-16T18:20:43.472Z,10.30
2022-11-16T18:23:10.095Z,10.30
2022-11-16T18:25:36.933Z,10.30
2022-11-16T18:28:03.577Z,10.30
2022-11-16T18:30:30.302Z,10.30
2022-11-16T18:32:56.866Z,10.30
2022-11-16T18:35:23.467Z,10.30
2022-11-16T18:37:50.094Z,10.20
2022-11-16T18:40:17.251Z,10.20
2022-11-16T18:42:43.859Z,10.20
2022-11-16T18:45:11.574Z,10.20
2022-11-16T18:47:38.262Z,10.20
2022-11-16T18:50:14.564Z,10.10
2022-11-16T18:52:45.746Z,10.10
2022-11-16T18:55:12.347Z,10.10
2022-11-16T18:57:39.041Z,10.10
2022-11-16T19:00:06.195Z,10.10
2022-11-16T19:02:32.779Z,10.10
2022-11-16T19:04:59.405Z,10.10
2022-11-16T19:07:26.205Z,10.10
2022-11-16T19:09:52.911Z,10.10
2022-11-16T19:12:19.573Z,10.10
2022-11-16T19:14:46.198Z,10.00
2022-11-16T19:17:12.867Z,10.00
2022-11-16T19:19:39.518Z,10.00
2022-11-16T19:22:06.155Z,10.00
2022-11-16T19:24:32.767Z,10.00
2022-11-16T19:26:59.340Z,10.00
2022-11-16T19:29:28.055Z,10.00
2022-11-16T19:31:54.631Z,10.00
2022-11-16T19:34:21.243Z,10.00
2022-11-16T19:36:47.903Z,10.00
2022-11-16T19:39:14.522Z,10.00
2022-11-16T19:41:41.274Z,9.90
2022-11-16T19:44:08.021Z,9.90
2022-11-16T19:46:37.944Z,9.90
2022-11-16T19:49:05.390Z,9.90
2022-11-16T19:51:33.938Z,9.90
2022-11-16T19:54:02.306Z,9.90
2022-11-16T19:56:29.265Z,10.00
2022-11-16T19:58:56.256Z,10.00
2022-11-16T20:01:27.432Z,10.00
2022-11-16T20:03:56.143Z,10.00
2022-11-16T20:06:26.443Z,10.00
2022-11-16T20:08:55.860Z,10.00
2022-11-16T20:11:24.924Z,10.00
2022-11-16T20:13:53.749Z,10.00
2022-11-16T20:16:23.411Z,10.00
2022-11-16T20:18:51.006Z,10.00
2022-11-16T20:21:29.065Z,10.00
2022-11-16T20:24:01.545Z,10.10
2022-11-16T20:26:33.492Z,10.10
2022-11-16T20:29:00.166Z,10.10
2022-11-16T20:31:29.245Z,10.20
2022-11-16T20:33:58.152Z,10.10
2022-11-16T20:36:27.752Z,10.20
2022-11-16T20:38:54.759Z,10.10
2022-11-16T20:41:26.108Z,10.20
2022-11-16T20:43:57.962Z,10.20
2022-11-16T20:46:26.725Z,10.20
2022-11-16T20:48:54.524Z,10.10
2022-11-16T20:51:21.187Z,10.10
2022-11-16T20:53:48.848Z,10.20
2022-11-16T20:56:17.678Z,10.20
2022-11-16T20:58:44.274Z,10.20
2022-11-16T21:01:13.844Z,10.20
2022-11-16T21:03:40.885Z,10.30
2022-11-16T21:06:08.783Z,10.30
2022-11-16T21:08:36.846Z,10.30
2022-11-16T21:11:14.202Z,10.30
2022-11-16T21:13:59.243Z,10.30
2022-11-16T21:16:26.079Z,10.30
2022-11-16T21:18:54.894Z,10.30
2022-11-16T21:21:21.545Z,10.30
2022-11-16T21:23:51.910Z,10.30
2022-11-16T21:26:20.735Z,10.30
2022-11-16T21:28:47.652Z,10.30
2022-11-16T21:31:22.800Z,10.30
2022-11-16T21:33:49.379Z,10.30
2022-11-16T21:36:21.080Z,10.30
2022-11-16T21:38:47.822Z,10.30
2022-11-16T21:41:16.144Z,10.30
2022-11-16T21:43:44.012Z,10.30
2022-11-16T21:46:13.555Z,10.40
2022-11-16T21:48:40.656Z,10.30
2022-11-16T21:51:12.409Z,10.30
2022-11-16T21:53:39.984Z,10.30
2022-11-16T21:56:10.295Z,10.30
2022-11-16T21:58:38.747Z,10.30
2022-11-16T22:01:05.625Z,10.30
2022-11-16T22:03:32.989Z,10.40
2022-11-16T22:06:20.174Z,10.30
2022-11-16T22:08:47.656Z,10.40
2022-11-16T22:11:15.136Z,10.40
2022-11-16T22:13:42.572Z,10.40
2022-11-16T22:16:15.173Z,10.40
2022-11-16T22:18:42.216Z,10.40
2022-11-16T22:21:09.594Z,10.40
2022-11-16T22:23:36.735Z,10.40
2022-11-16T22:26:14.503Z,10.40
2022-11-16T22:28:41.197Z,10.50
2022-11-16T22:31:13.733Z,10.40
2022-11-16T22:33:40.914Z,10.40
2022-11-16T22:36:09.658Z,10.40
2022-11-16T22:38:36.820Z,10.40
